sensor_id;sensor_type;location;lat;lon;timestamp;temperature;humidity
42245;DHT22;27912;51.828;5.688;2023-02-20T00:02:23;5.30;99.90
42245;DHT22;27912;51.828;5.688;2023-02-20T00:04:48;5.40;99.90
42245;DHT22;27912;51.828;5.688;2023-02-20T00:07:14;5.40;99.90
42245;DHT22;27912;51.828;5.688;2023-02-20T00:09:40;5.50;99.90
42245;DHT22;27912;51.828;5.688;2023-02-20T00:12:05;5.50;99.90
42245;DHT22;27912;51.828;5.688;2023-02-20T00:14:31;5.50;99.90
42245;DHT22;27912;51.828;5.688;2023-02-20T00:16:56;5.50;99.90
42245;DHT22;27912;51.828;5.688;2023-02-20T00:19:22;5.60;99.90
42245;DHT22;27912;51.828;5.688;2023-02-20T00:21:48;5.60;99.90
42245;DHT22;27912;51.828;5.688;2023-02-20T00:24:15;5.60;99.90
42245;DHT22;27912;51.828;5.688;2023-02-20T00:26:48;5.60;99.90
42245;DHT22;27912;51.828;5.688;2023-02-20T00:29:15;5.60;99.90
42245;DHT22;27912;51.828;5.688;2023-02-20T00:31:41;5.60;99.90
42245;DHT22;27912;51.828;5.688;2023-02-20T00:34:07;5.60;99.90
42245;DHT22;27912;51.828;5.688;2023-02-20T00:36:33;5.70;99.90
42245;DHT22;27912;51.828;5.688;2023-02-20T00:38:58;5.70;99.90
42245;DHT22;27912;51.828;5.688;2023-02-20T00:41:24;5.70;99.90
42245;DHT22;27912;51.828;5.688;2023-02-20T00:43:49;5.70;99.90
42245;DHT22;27912;51.828;5.688;2023-02-20T00:46:15;5.70;99.90
42245;DHT22;27912;51.828;5.688;2023-02-20T00:48:41;5.70;99.90
42245;DHT22;27912;51.828;5.688;2023-02-20T00:51:07;5.70;99.90
42245;DHT22;27912;51.828;5.688;2023-02-20T00:53:32;5.70;99.90
42245;DHT22;27912;51.828;5.688;2023-02-20T00:55:58;5.70;99.90
42245;DHT22;27912;51.828;5.688;2023-02-20T00:58:23;5.70;99.90
42245;DHT22;27912;51.828;5.688;2023-02-20T01:00:49;5.70;99.90
42245;DHT22;27912;51.828;5.688;2023-02-20T01:03:14;5.70;99.90
42245;DHT22;27912;51.828;5.688;2023-02-20T01:05:40;5.70;99.90
42245;DHT22;27912;51.828;5.688;2023-02-20T01:08:05;5.70;99.90
42245;DHT22;27912;51.828;5.688;2023-02-20T01:10:31;5.70;99.90
42245;DHT22;27912;51.828;5.688;2023-02-20T01:12:56;5.60;99.90
42245;DHT22;27912;51.828;5.688;2023-02-20T01:15:22;5.60;99.90
42245;DHT22;27912;51.828;5.688;2023-02-20T01:17:48;5.60;99.90
42245;DHT22;27912;51.828;5.688;2023-02-20T01:20:13;5.60;99.90
42245;DHT22;27912;51.828;5.688;2023-02-20T01:22:39;5.60;99.90
42245;DHT22;27912;51.828;5.688;2023-02-20T01:25:06;5.60;99.90
42245;DHT22;27912;51.828;5.688;2023-02-20T01:27:31;5.60;99.90
42245;DHT22;27912;51.828;5.688;2023-02-20T01:29:57;5.60;99.90
42245;DHT22;27912;51.828;5.688;2023-02-20T01:32:22;5.60;99.90
42245;DHT22;27912;51.828;5.688;2023-02-20T01:34:48;5.60;99.90
42245;DHT22;27912;51.828;5.688;2023-02-20T01:37:14;5.60;99.90
42245;DHT22;27912;51.828;5.688;2023-02-20T01:39:39;5.60;99.90
42245;DHT22;27912;51.828;5.688;2023-02-20T01:42:07;5.50;99.90
42245;DHT22;27912;51.828;5.688;2023-02-20T01:44:36;5.50;99.90
42245;DHT22;27912;51.828;5.688;2023-02-20T01:47:28;5.50;99.90
42245;DHT22;27912;51.828;5.688;2023-02-20T01:49:57;5.50;99.90
42245;DHT22;27912;51.828;5.688;2023-02-20T01:52:30;5.40;99.90
42245;DHT22;27912;51.828;5.688;2023-02-20T01:56:00;5.40;99.90
42245;DHT22;27912;51.828;5.688;2023-02-20T01:58:05;5.40;99.90
42245;DHT22;27912;51.828;5.688;2023-02-20T02:00:33;5.40;99.90
42245;DHT22;27912;51.828;5.688;2023-02-20T02:03:15;5.40;99.90
42245;DHT22;27912;51.828;5.688;2023-02-20T02:05:45;5.50;99.90
42245;DHT22;27912;51.828;5.688;2023-02-20T02:08:13;5.40;99.90
42245;DHT22;27912;51.828;5.688;2023-02-20T02:11:02;5.40;99.90
42245;DHT22;27912;51.828;5.688;2023-02-20T02:13:32;5.40;99.90
42245;DHT22;27912;51.828;5.688;2023-02-20T02:22:08;5.40;99.90
42245;DHT22;27912;51.828;5.688;2023-02-20T02:30:45;5.50;99.90
42245;DHT22;27912;51.828;5.688;2023-02-20T02:33:18;5.50;99.90
42245;DHT22;27912;51.828;5.688;2023-02-20T02:36:08;5.50;99.90
42245;DHT22;27912;51.828;5.688;2023-02-20T02:41:59;5.50;99.90
42245;DHT22;27912;51.828;5.688;2023-02-20T02:44:41;5.40;99.90
42245;DHT22;27912;51.828;5.688;2023-02-20T02:50:20;5.50;99.90
42245;DHT22;27912;51.828;5.688;2023-02-20T02:52:49;5.50;99.90
42245;DHT22;27912;51.828;5.688;2023-02-20T02:55:24;5.50;99.90
42245;DHT22;27912;51.828;5.688;2023-02-20T02:57:50;5.60;99.90
42245;DHT22;27912;51.828;5.688;2023-02-20T03:03:16;5.70;99.90
42245;DHT22;27912;51.828;5.688;2023-02-20T03:08:55;5.80;99.90
42245;DHT22;27912;51.828;5.688;2023-02-20T03:11:22;5.80;99.90
42245;DHT22;27912;51.828;5.688;2023-02-20T03:13:56;5.80;99.90
42245;DHT22;27912;51.828;5.688;2023-02-20T03:17:01;5.80;99.90
42245;DHT22;27912;51.828;5.688;2023-02-20T03:20:12;5.90;99.90
42245;DHT22;27912;51.828;5.688;2023-02-20T03:22:36;5.90;99.90
42245;DHT22;27912;51.828;5.688;2023-02-20T03:25:26;6.00;99.90
42245;DHT22;27912;51.828;5.688;2023-02-20T03:28:42;6.00;99.90
42245;DHT22;27912;51.828;5.688;2023-02-20T03:31:07;6.00;99.90
42245;DHT22;27912;51.828;5.688;2023-02-20T03:33:39;6.10;99.90
42245;DHT22;27912;51.828;5.688;2023-02-20T03:36:31;6.00;99.90
42245;DHT22;27912;51.828;5.688;2023-02-20T03:39:20;6.10;99.90
42245;DHT22;27912;51.828;5.688;2023-02-20T03:42:07;6.10;99.90
42245;DHT22;27912;51.828;5.688;2023-02-20T03:44:53;6.10;99.90
42245;DHT22;27912;51.828;5.688;2023-02-20T03:47:22;6.20;99.90
42245;DHT22;27912;51.828;5.688;2023-02-20T03:49:52;6.20;99.90
42245;DHT22;27912;51.828;5.688;2023-02-20T03:52:37;6.20;99.90
42245;DHT22;27912;51.828;5.688;2023-02-20T03:55:03;6.30;99.90
42245;DHT22;27912;51.828;5.688;2023-02-20T03:57:36;6.30;99.90
42245;DHT22;27912;51.828;5.688;2023-02-20T04:00:10;6.30;99.90
42245;DHT22;27912;51.828;5.688;2023-02-20T04:02:41;6.30;99.90
42245;DHT22;27912;51.828;5.688;2023-02-20T04:05:12;6.40;99.90
42245;DHT22;27912;51.828;5.688;2023-02-20T04:07:56;6.30;99.90
42245;DHT22;27912;51.828;5.688;2023-02-20T04:10:31;6.40;99.90
42245;DHT22;27912;51.828;5.688;2023-02-20T04:12:59;6.40;99.90
42245;DHT22;27912;51.828;5.688;2023-02-20T04:15:26;6.40;99.90
42245;DHT22;27912;51.828;5.688;2023-02-20T04:18:03;6.50;99.90
42245;DHT22;27912;51.828;5.688;2023-02-20T04:20:29;6.50;99.90
42245;DHT22;27912;51.828;5.688;2023-02-20T04:22:59;6.50;99.90
42245;DHT22;27912;51.828;5.688;2023-02-20T04:25:39;6.50;99.90
42245;DHT22;27912;51.828;5.688;2023-02-20T04:28:06;6.60;99.90
42245;DHT22;27912;51.828;5.688;2023-02-20T04:30:32;6.60;99.90
42245;DHT22;27912;51.828;5.688;2023-02-20T04:32:57;6.60;99.90
42245;DHT22;27912;51.828;5.688;2023-02-20T04:35:23;6.60;99.90
42245;DHT22;27912;51.828;5.688;2023-02-20T04:37:49;6.70;99.90
42245;DHT22;27912;51.828;5.688;2023-02-20T04:40:17;6.70;99.90
42245;DHT22;27912;51.828;5.688;2023-02-20T04:42:42;6.80;99.90
42245;DHT22;27912;51.828;5.688;2023-02-20T04:45:08;6.80;99.90
42245;DHT22;27912;51.828;5.688;2023-02-20T04:47:34;6.80;99.90
42245;DHT22;27912;51.828;5.688;2023-02-20T04:49:59;6.90;99.90
42245;DHT22;27912;51.828;5.688;2023-02-20T04:52:25;6.90;99.90
42245;DHT22;27912;51.828;5.688;2023-02-20T04:54:51;6.90;99.90
42245;DHT22;27912;51.828;5.688;2023-02-20T04:57:17;6.90;99.90
42245;DHT22;27912;51.828;5.688;2023-02-20T04:59:43;7.00;99.90
42245;DHT22;27912;51.828;5.688;2023-02-20T05:02:09;7.00;99.90
42245;DHT22;27912;51.828;5.688;2023-02-20T05:04:34;7.00;99.90
42245;DHT22;27912;51.828;5.688;2023-02-20T05:07:00;7.00;99.90
42245;DHT22;27912;51.828;5.688;2023-02-20T05:09:26;7.00;99.90
42245;DHT22;27912;51.828;5.688;2023-02-20T05:11:52;7.00;99.90
42245;DHT22;27912;51.828;5.688;2023-02-20T05:14:19;7.00;99.90
42245;DHT22;27912;51.828;5.688;2023-02-20T05:16:45;7.10;99.90
42245;DHT22;27912;51.828;5.688;2023-02-20T05:19:12;7.10;99.90
42245;DHT22;27912;51.828;5.688;2023-02-20T05:21:41;7.10;99.90
42245;DHT22;27912;51.828;5.688;2023-02-20T05:24:25;7.10;99.90
42245;DHT22;27912;51.828;5.688;2023-02-20T05:26:53;7.10;99.90
42245;DHT22;27912;51.828;5.688;2023-02-20T05:29:18;7.10;99.90
42245;DHT22;27912;51.828;5.688;2023-02-20T05:31:44;7.10;99.90
42245;DHT22;27912;51.828;5.688;2023-02-20T05:34:09;7.20;99.90
42245;DHT22;27912;51.828;5.688;2023-02-20T05:36:35;7.20;99.90
42245;DHT22;27912;51.828;5.688;2023-02-20T05:39:01;7.20;99.90
42245;DHT22;27912;51.828;5.688;2023-02-20T05:41:27;7.20;99.90
42245;DHT22;27912;51.828;5.688;2023-02-20T05:43:52;7.20;99.90
42245;DHT22;27912;51.828;5.688;2023-02-20T05:46:22;7.20;99.90
42245;DHT22;27912;51.828;5.688;2023-02-20T05:48:48;7.30;99.90
42245;DHT22;27912;51.828;5.688;2023-02-20T05:51:28;7.30;99.90
42245;DHT22;27912;51.828;5.688;2023-02-20T05:53:55;7.30;99.90
42245;DHT22;27912;51.828;5.688;2023-02-20T05:56:21;7.30;99.90
42245;DHT22;27912;51.828;5.688;2023-02-20T05:58:47;7.30;99.90
42245;DHT22;27912;51.828;5.688;2023-02-20T06:01:24;7.40;99.90
42245;DHT22;27912;51.828;5.688;2023-02-20T06:03:50;7.40;99.90
42245;DHT22;27912;51.828;5.688;2023-02-20T06:06:17;7.40;99.90
42245;DHT22;27912;51.828;5.688;2023-02-20T06:08:42;7.50;99.90
42245;DHT22;27912;51.828;5.688;2023-02-20T06:11:10;7.50;99.90
42245;DHT22;27912;51.828;5.688;2023-02-20T06:13:38;7.50;99.90
42245;DHT22;27912;51.828;5.688;2023-02-20T06:16:04;7.50;99.90
42245;DHT22;27912;51.828;5.688;2023-02-20T06:18:29;7.50;99.90
42245;DHT22;27912;51.828;5.688;2023-02-20T06:20:55;7.50;99.90
42245;DHT22;27912;51.828;5.688;2023-02-20T06:23:21;7.50;99.90
42245;DHT22;27912;51.828;5.688;2023-02-20T06:25:46;7.50;99.90
42245;DHT22;27912;51.828;5.688;2023-02-20T06:28:12;7.60;99.90
42245;DHT22;27912;51.828;5.688;2023-02-20T06:30:37;7.50;99.90
42245;DHT22;27912;51.828;5.688;2023-02-20T06:33:03;7.50;99.90
42245;DHT22;27912;51.828;5.688;2023-02-20T06:35:28;7.50;99.90
42245;DHT22;27912;51.828;5.688;2023-02-20T06:37:54;7.50;99.90
42245;DHT22;27912;51.828;5.688;2023-02-20T06:40:19;7.50;99.90
42245;DHT22;27912;51.828;5.688;2023-02-20T06:42:45;7.60;99.90
42245;DHT22;27912;51.828;5.688;2023-02-20T06:45:10;7.50;99.90
42245;DHT22;27912;51.828;5.688;2023-02-20T06:47:36;7.60;99.90
42245;DHT22;27912;51.828;5.688;2023-02-20T06:50:03;7.60;99.90
42245;DHT22;27912;51.828;5.688;2023-02-20T06:52:28;7.60;99.90
42245;DHT22;27912;51.828;5.688;2023-02-20T06:54:54;7.60;99.90
42245;DHT22;27912;51.828;5.688;2023-02-20T06:57:19;7.60;99.90
42245;DHT22;27912;51.828;5.688;2023-02-20T06:59:45;7.70;99.90
42245;DHT22;27912;51.828;5.688;2023-02-20T07:02:12;7.60;99.90
42245;DHT22;27912;51.828;5.688;2023-02-20T07:04:38;7.70;99.90
42245;DHT22;27912;51.828;5.688;2023-02-20T07:07:04;7.70;99.90
42245;DHT22;27912;51.828;5.688;2023-02-20T07:09:29;7.70;99.90
42245;DHT22;27912;51.828;5.688;2023-02-20T07:11:55;7.70;99.90
42245;DHT22;27912;51.828;5.688;2023-02-20T07:14:21;7.70;99.90
42245;DHT22;27912;51.828;5.688;2023-02-20T07:16:47;7.80;99.90
42245;DHT22;27912;51.828;5.688;2023-02-20T07:19:12;7.80;99.90
42245;DHT22;27912;51.828;5.688;2023-02-20T07:21:38;7.80;99.90
42245;DHT22;27912;51.828;5.688;2023-02-20T07:24:04;7.80;99.90
42245;DHT22;27912;51.828;5.688;2023-02-20T07:26:30;7.80;99.90
42245;DHT22;27912;51.828;5.688;2023-02-20T07:28:57;7.80;99.90
42245;DHT22;27912;51.828;5.688;2023-02-20T07:31:23;7.90;99.90
42245;DHT22;27912;51.828;5.688;2023-02-20T07:33:49;7.90;99.90
42245;DHT22;27912;51.828;5.688;2023-02-20T07:36:15;7.90;99.90
42245;DHT22;27912;51.828;5.688;2023-02-20T07:38:41;7.90;99.90
42245;DHT22;27912;51.828;5.688;2023-02-20T07:41:08;7.90;99.90
42245;DHT22;27912;51.828;5.688;2023-02-20T07:43:34;7.90;99.90
42245;DHT22;27912;51.828;5.688;2023-02-20T07:46:00;7.90;99.90
42245;DHT22;27912;51.828;5.688;2023-02-20T07:48:25;8.00;99.90
42245;DHT22;27912;51.828;5.688;2023-02-20T07:50:51;8.00;99.90
42245;DHT22;27912;51.828;5.688;2023-02-20T07:53:18;8.00;99.90
42245;DHT22;27912;51.828;5.688;2023-02-20T07:55:44;8.00;99.90
42245;DHT22;27912;51.828;5.688;2023-02-20T07:58:10;8.00;99.90
42245;DHT22;27912;51.828;5.688;2023-02-20T08:00:35;8.00;99.90
42245;DHT22;27912;51.828;5.688;2023-02-20T08:03:01;8.00;99.90
42245;DHT22;27912;51.828;5.688;2023-02-20T08:05:26;8.00;99.90
42245;DHT22;27912;51.828;5.688;2023-02-20T08:07:52;8.00;99.90
42245;DHT22;27912;51.828;5.688;2023-02-20T08:10:21;8.10;99.90
42245;DHT22;27912;51.828;5.688;2023-02-20T08:12:48;8.10;99.90
42245;DHT22;27912;51.828;5.688;2023-02-20T08:15:14;8.10;99.90
42245;DHT22;27912;51.828;5.688;2023-02-20T08:17:39;8.10;99.90
42245;DHT22;27912;51.828;5.688;2023-02-20T08:20:06;8.10;99.90
42245;DHT22;27912;51.828;5.688;2023-02-20T08:22:33;8.10;99.90
42245;DHT22;27912;51.828;5.688;2023-02-20T08:24:58;8.10;99.90
42245;DHT22;27912;51.828;5.688;2023-02-20T08:27:25;8.20;99.90
42245;DHT22;27912;51.828;5.688;2023-02-20T08:29:50;8.20;99.90
42245;DHT22;27912;51.828;5.688;2023-02-20T08:32:16;8.20;99.90
42245;DHT22;27912;51.828;5.688;2023-02-20T08:34:41;8.20;99.90
42245;DHT22;27912;51.828;5.688;2023-02-20T08:37:07;8.20;99.90
42245;DHT22;27912;51.828;5.688;2023-02-20T08:39:34;8.20;99.90
42245;DHT22;27912;51.828;5.688;2023-02-20T08:42:00;8.20;99.90
42245;DHT22;27912;51.828;5.688;2023-02-20T08:44:26;8.30;99.90
42245;DHT22;27912;51.828;5.688;2023-02-20T08:46:52;8.30;99.90
42245;DHT22;27912;51.828;5.688;2023-02-20T08:49:18;8.30;99.90
42245;DHT22;27912;51.828;5.688;2023-02-20T08:51:47;8.30;99.90
42245;DHT22;27912;51.828;5.688;2023-02-20T08:54:14;8.30;99.90
42245;DHT22;27912;51.828;5.688;2023-02-20T08:56:41;8.30;99.90
42245;DHT22;27912;51.828;5.688;2023-02-20T08:59:07;8.40;99.90
42245;DHT22;27912;51.828;5.688;2023-02-20T09:01:32;8.40;99.90
42245;DHT22;27912;51.828;5.688;2023-02-20T09:03:58;8.50;99.90
42245;DHT22;27912;51.828;5.688;2023-02-20T09:06:24;8.50;99.90
42245;DHT22;27912;51.828;5.688;2023-02-20T09:08:51;8.50;99.90
42245;DHT22;27912;51.828;5.688;2023-02-20T09:11:17;8.60;99.90
42245;DHT22;27912;51.828;5.688;2023-02-20T09:13:43;8.60;99.90
42245;DHT22;27912;51.828;5.688;2023-02-20T09:16:13;8.60;99.90
42245;DHT22;27912;51.828;5.688;2023-02-20T09:18:39;8.70;99.90
42245;DHT22;27912;51.828;5.688;2023-02-20T09:21:08;8.70;99.90
42245;DHT22;27912;51.828;5.688;2023-02-20T09:23:35;8.70;99.90
42245;DHT22;27912;51.828;5.688;2023-02-20T09:26:01;8.80;99.90
42245;DHT22;27912;51.828;5.688;2023-02-20T09:28:26;8.80;99.90
42245;DHT22;27912;51.828;5.688;2023-02-20T09:30:52;8.80;99.90
42245;DHT22;27912;51.828;5.688;2023-02-20T09:33:20;8.80;99.90
42245;DHT22;27912;51.828;5.688;2023-02-20T09:35:45;8.80;99.90
42245;DHT22;27912;51.828;5.688;2023-02-20T09:38:14;8.80;99.90
42245;DHT22;27912;51.828;5.688;2023-02-20T09:40:39;8.90;99.90
42245;DHT22;27912;51.828;5.688;2023-02-20T09:44:00;8.90;99.90
42245;DHT22;27912;51.828;5.688;2023-02-20T09:46:02;8.90;99.90
42245;DHT22;27912;51.828;5.688;2023-02-20T09:48:54;9.00;99.90
42245;DHT22;27912;51.828;5.688;2023-02-20T09:51:24;9.00;99.90
42245;DHT22;27912;51.828;5.688;2023-02-20T09:54:00;9.00;99.90
42245;DHT22;27912;51.828;5.688;2023-02-20T09:56:30;9.00;99.90
42245;DHT22;27912;51.828;5.688;2023-02-20T09:59:16;9.00;99.90
42245;DHT22;27912;51.828;5.688;2023-02-20T10:01:54;9.10;99.90
42245;DHT22;27912;51.828;5.688;2023-02-20T10:04:27;9.00;99.90
42245;DHT22;27912;51.828;5.688;2023-02-20T10:07:01;9.00;99.90
42245;DHT22;27912;51.828;5.688;2023-02-20T10:09:29;9.00;99.90
42245;DHT22;27912;51.828;5.688;2023-02-20T10:15:10;9.00;99.90
42245;DHT22;27912;51.828;5.688;2023-02-20T10:18:20;9.10;99.90
42245;DHT22;27912;51.828;5.688;2023-02-20T10:21:02;9.10;99.90
42245;DHT22;27912;51.828;5.688;2023-02-20T10:23:40;9.10;99.90
42245;DHT22;27912;51.828;5.688;2023-02-20T10:26:25;9.10;99.90
42245;DHT22;27912;51.828;5.688;2023-02-20T10:28:51;9.10;99.90
42245;DHT22;27912;51.828;5.688;2023-02-20T10:31:36;9.00;99.90
42245;DHT22;27912;51.828;5.688;2023-02-20T10:34:10;9.00;99.90
42245;DHT22;27912;51.828;5.688;2023-02-20T10:36:47;9.00;99.90
42245;DHT22;27912;51.828;5.688;2023-02-20T10:39:17;9.00;99.90
42245;DHT22;27912;51.828;5.688;2023-02-20T10:41:49;9.00;99.90
42245;DHT22;27912;51.828;5.688;2023-02-20T10:47:03;9.00;99.90
42245;DHT22;27912;51.828;5.688;2023-02-20T10:49:36;9.10;99.90
42245;DHT22;27912;51.828;5.688;2023-02-20T10:52:05;9.00;99.90
42245;DHT22;27912;51.828;5.688;2023-02-20T10:54:42;9.00;99.90
42245;DHT22;27912;51.828;5.688;2023-02-20T10:57:19;9.00;99.90
42245;DHT22;27912;51.828;5.688;2023-02-20T11:00:06;9.00;99.90
42245;DHT22;27912;51.828;5.688;2023-02-20T11:02:50;9.10;99.90
42245;DHT22;27912;51.828;5.688;2023-02-20T11:05:20;9.00;99.90
42245;DHT22;27912;51.828;5.688;2023-02-20T11:07:48;9.00;99.90
42245;DHT22;27912;51.828;5.688;2023-02-20T11:10:13;9.00;99.90
42245;DHT22;27912;51.828;5.688;2023-02-20T11:15:15;9.00;99.90
42245;DHT22;27912;51.828;5.688;2023-02-20T11:17:43;9.00;99.90
42245;DHT22;27912;51.828;5.688;2023-02-20T11:22:58;9.10;99.90
42245;DHT22;27912;51.828;5.688;2023-02-20T11:25:29;9.10;99.90
42245;DHT22;27912;51.828;5.688;2023-02-20T11:27:57;9.10;99.90
42245;DHT22;27912;51.828;5.688;2023-02-20T11:30:34;9.20;99.90
42245;DHT22;27912;51.828;5.688;2023-02-20T11:33:25;9.20;99.90
42245;DHT22;27912;51.828;5.688;2023-02-20T11:35:58;9.20;99.90
42245;DHT22;27912;51.828;5.688;2023-02-20T11:38:34;9.30;99.90
42245;DHT22;27912;51.828;5.688;2023-02-20T11:41:07;9.30;99.90
42245;DHT22;27912;51.828;5.688;2023-02-20T11:43:39;9.40;99.90
42245;DHT22;27912;51.828;5.688;2023-02-20T11:46:15;9.40;99.90
42245;DHT22;27912;51.828;5.688;2023-02-20T11:48:57;9.40;99.90
42245;DHT22;27912;51.828;5.688;2023-02-20T11:51:30;9.50;99.90
42245;DHT22;27912;51.828;5.688;2023-02-20T11:54:19;9.40;99.90
42245;DHT22;27912;51.828;5.688;2023-02-20T11:57:04;9.40;99.90
42245;DHT22;27912;51.828;5.688;2023-02-20T11:59:42;9.40;99.90
42245;DHT22;27912;51.828;5.688;2023-02-20T12:05:01;9.50;99.90
42245;DHT22;27912;51.828;5.688;2023-02-20T12:12:53;9.50;99.90
42245;DHT22;27912;51.828;5.688;2023-02-20T12:15:22;9.60;99.90
42245;DHT22;27912;51.828;5.688;2023-02-20T12:26:55;9.70;99.90
42245;DHT22;27912;51.828;5.688;2023-02-20T12:29:45;9.70;99.90
42245;DHT22;27912;51.828;5.688;2023-02-20T12:32:29;9.70;99.90
42245;DHT22;27912;51.828;5.688;2023-02-20T12:35:22;9.80;99.90
42245;DHT22;27912;51.828;5.688;2023-02-20T12:38:01;9.80;99.90
42245;DHT22;27912;51.828;5.688;2023-02-20T12:41:05;9.80;99.90
42245;DHT22;27912;51.828;5.688;2023-02-20T12:43:32;9.80;99.90
42245;DHT22;27912;51.828;5.688;2023-02-20T12:46:42;9.80;99.90
42245;DHT22;27912;51.828;5.688;2023-02-20T12:49:40;9.80;99.90
42245;DHT22;27912;51.828;5.688;2023-02-20T12:57:59;9.70;99.90
42245;DHT22;27912;51.828;5.688;2023-02-20T13:00:33;9.70;99.90
42245;DHT22;27912;51.828;5.688;2023-02-20T13:03:19;9.70;99.90
42245;DHT22;27912;51.828;5.688;2023-02-20T13:05:48;9.70;99.90
42245;DHT22;27912;51.828;5.688;2023-02-20T13:08:25;9.70;99.90
42245;DHT22;27912;51.828;5.688;2023-02-20T13:10:55;9.70;99.90
42245;DHT22;27912;51.828;5.688;2023-02-20T13:13:23;9.80;99.90
42245;DHT22;27912;51.828;5.688;2023-02-20T13:16:04;9.80;99.90
42245;DHT22;27912;51.828;5.688;2023-02-20T13:21:16;9.80;99.90
42245;DHT22;27912;51.828;5.688;2023-02-20T13:23:42;9.80;99.90
42245;DHT22;27912;51.828;5.688;2023-02-20T13:36:41;9.70;99.90
42245;DHT22;27912;51.828;5.688;2023-02-20T13:52:35;9.70;99.90
42245;DHT22;27912;51.828;5.688;2023-02-20T13:55:15;9.80;99.90
42245;DHT22;27912;51.828;5.688;2023-02-20T14:00:35;9.70;99.90
42245;DHT22;27912;51.828;5.688;2023-02-20T14:03:30;9.70;99.90
42245;DHT22;27912;51.828;5.688;2023-02-20T14:06:05;9.70;99.90
42245;DHT22;27912;51.828;5.688;2023-02-20T14:08:32;9.70;99.90
42245;DHT22;27912;51.828;5.688;2023-02-20T14:11:30;9.70;99.90
42245;DHT22;27912;51.828;5.688;2023-02-20T14:13:57;9.70;99.90
42245;DHT22;27912;51.828;5.688;2023-02-20T14:16:28;9.70;99.90
42245;DHT22;27912;51.828;5.688;2023-02-20T14:18:58;9.70;99.90
42245;DHT22;27912;51.828;5.688;2023-02-20T14:21:24;9.70;99.90
42245;DHT22;27912;51.828;5.688;2023-02-20T14:23:51;9.70;99.90
42245;DHT22;27912;51.828;5.688;2023-02-20T14:26:29;9.70;99.90
42245;DHT22;27912;51.828;5.688;2023-02-20T14:28:57;9.70;99.90
42245;DHT22;27912;51.828;5.688;2023-02-20T14:34:16;9.70;99.90
42245;DHT22;27912;51.828;5.688;2023-02-20T14:37:09;9.70;99.90
42245;DHT22;27912;51.828;5.688;2023-02-20T14:39:50;9.60;99.90
42245;DHT22;27912;51.828;5.688;2023-02-20T14:42:21;9.70;99.90
42245;DHT22;27912;51.828;5.688;2023-02-20T14:45:01;9.70;99.90
42245;DHT22;27912;51.828;5.688;2023-02-20T14:47:28;9.70;99.90
42245;DHT22;27912;51.828;5.688;2023-02-20T14:49:53;9.70;99.90
42245;DHT22;27912;51.828;5.688;2023-02-20T14:52:31;9.70;99.90
42245;DHT22;27912;51.828;5.688;2023-02-20T14:55:04;9.80;99.90
42245;DHT22;27912;51.828;5.688;2023-02-20T14:57:31;9.80;99.90
42245;DHT22;27912;51.828;5.688;2023-02-20T15:00:36;9.80;99.90
42245;DHT22;27912;51.828;5.688;2023-02-20T15:03:08;9.80;99.90
42245;DHT22;27912;51.828;5.688;2023-02-20T15:05:39;9.70;99.90
42245;DHT22;27912;51.828;5.688;2023-02-20T15:08:32;9.70;99.90
42245;DHT22;27912;51.828;5.688;2023-02-20T15:11:06;9.70;99.90
42245;DHT22;27912;51.828;5.688;2023-02-20T15:13:36;9.60;99.90
42245;DHT22;27912;51.828;5.688;2023-02-20T15:18:39;9.60;99.90
42245;DHT22;27912;51.828;5.688;2023-02-20T15:21:05;9.60;99.90
42245;DHT22;27912;51.828;5.688;2023-02-20T15:23:35;9.50;99.90
42245;DHT22;27912;51.828;5.688;2023-02-20T15:29:25;9.50;99.90
42245;DHT22;27912;51.828;5.688;2023-02-20T15:31:56;9.50;99.90
42245;DHT22;27912;51.828;5.688;2023-02-20T15:34:25;9.50;99.90
42245;DHT22;27912;51.828;5.688;2023-02-20T15:36:51;9.50;99.90
42245;DHT22;27912;51.828;5.688;2023-02-20T15:39:17;9.50;99.90
42245;DHT22;27912;51.828;5.688;2023-02-20T15:41:44;9.50;99.90
42245;DHT22;27912;51.828;5.688;2023-02-20T15:44:10;9.50;99.90
42245;DHT22;27912;51.828;5.688;2023-02-20T15:46:36;9.50;99.90
42245;DHT22;27912;51.828;5.688;2023-02-20T15:49:03;9.50;99.90
42245;DHT22;27912;51.828;5.688;2023-02-20T15:51:29;9.40;99.90
42245;DHT22;27912;51.828;5.688;2023-02-20T15:53:57;9.40;99.90
42245;DHT22;27912;51.828;5.688;2023-02-20T15:56:31;9.40;99.90
42245;DHT22;27912;51.828;5.688;2023-02-20T15:59:03;9.40;99.90
42245;DHT22;27912;51.828;5.688;2023-02-20T16:01:30;9.40;99.90
42245;DHT22;27912;51.828;5.688;2023-02-20T16:03:56;9.40;99.90
42245;DHT22;27912;51.828;5.688;2023-02-20T16:06:22;9.30;99.90
42245;DHT22;27912;51.828;5.688;2023-02-20T16:08:48;9.30;99.90
42245;DHT22;27912;51.828;5.688;2023-02-20T16:11:15;9.30;99.90
42245;DHT22;27912;51.828;5.688;2023-02-20T16:13:42;9.30;99.90
42245;DHT22;27912;51.828;5.688;2023-02-20T16:16:21;9.40;99.90
42245;DHT22;27912;51.828;5.688;2023-02-20T16:18:47;9.40;99.90
42245;DHT22;27912;51.828;5.688;2023-02-20T16:21:16;9.30;99.90
42245;DHT22;27912;51.828;5.688;2023-02-20T16:23:42;9.30;99.90
42245;DHT22;27912;51.828;5.688;2023-02-20T16:26:11;9.30;99.90
42245;DHT22;27912;51.828;5.688;2023-02-20T16:28:36;9.30;99.90
42245;DHT22;27912;51.828;5.688;2023-02-20T16:31:02;9.30;99.90
42245;DHT22;27912;51.828;5.688;2023-02-20T16:33:27;9.30;99.90
42245;DHT22;27912;51.828;5.688;2023-02-20T16:35:53;9.30;99.90
42245;DHT22;27912;51.828;5.688;2023-02-20T16:38:19;9.20;99.90
42245;DHT22;27912;51.828;5.688;2023-02-20T16:40:45;9.30;99.90
42245;DHT22;27912;51.828;5.688;2023-02-20T16:43:12;9.20;99.90
42245;DHT22;27912;51.828;5.688;2023-02-20T16:45:38;9.30;99.90
42245;DHT22;27912;51.828;5.688;2023-02-20T16:48:13;9.20;99.90
42245;DHT22;27912;51.828;5.688;2023-02-20T16:50:39;9.20;99.90
42245;DHT22;27912;51.828;5.688;2023-02-20T16:53:05;9.30;99.90
42245;DHT22;27912;51.828;5.688;2023-02-20T16:55:34;9.20;99.90
42245;DHT22;27912;51.828;5.688;2023-02-20T16:58:01;9.20;99.90
42245;DHT22;27912;51.828;5.688;2023-02-20T17:00:32;9.30;99.90
42245;DHT22;27912;51.828;5.688;2023-02-20T17:02:59;9.20;99.90
42245;DHT22;27912;51.828;5.688;2023-02-20T17:05:27;9.30;99.90
42245;DHT22;27912;51.828;5.688;2023-02-20T17:07:54;9.20;99.90
42245;DHT22;27912;51.828;5.688;2023-02-20T17:10:21;9.20;99.90
42245;DHT22;27912;51.828;5.688;2023-02-20T17:12:47;9.30;99.90
42245;DHT22;27912;51.828;5.688;2023-02-20T17:15:14;9.20;99.90
42245;DHT22;27912;51.828;5.688;2023-02-20T17:17:41;9.30;99.90
42245;DHT22;27912;51.828;5.688;2023-02-20T17:20:11;9.30;99.90
42245;DHT22;27912;51.828;5.688;2023-02-20T17:22:36;9.30;99.90
42245;DHT22;27912;51.828;5.688;2023-02-20T17:25:02;9.30;99.90
42245;DHT22;27912;51.828;5.688;2023-02-20T17:27:28;9.30;99.90
42245;DHT22;27912;51.828;5.688;2023-02-20T17:29:53;9.30;99.90
42245;DHT22;27912;51.828;5.688;2023-02-20T17:32:22;9.30;99.90
42245;DHT22;27912;51.828;5.688;2023-02-20T17:34:47;9.30;99.90
42245;DHT22;27912;51.828;5.688;2023-02-20T17:37:13;9.30;99.90
42245;DHT22;27912;51.828;5.688;2023-02-20T17:39:39;9.30;99.90
42245;DHT22;27912;51.828;5.688;2023-02-20T17:42:05;9.20;99.90
42245;DHT22;27912;51.828;5.688;2023-02-20T17:44:31;9.30;99.90